createdAt,value
2018-11-13T11:19:56.231Z,71.87
2018-11-13T11:20:57.466Z,73.02
2018-11-13T11:21:56.852Z,72.72
2018-11-13T11:22:56.750Z,72.55
2018-11-13T11:23:56.663Z,73.47
2018-11-13T11:24:56.539Z,73.77
2018-11-13T11:25:56.400Z,73.57
2018-11-13T11:26:56.266Z,73.02
2018-11-13T11:27:56.235Z,72.82
2018-11-13T11:28:56.015Z,71.33
2018-11-13T11:29:55.913Z,71.50
2018-11-13T11:30:52.725Z,71.50
2018-11-13T11:31:32.624Z,71.70
2018-11-13T11:32:33.646Z,70.96
2018-11-13T11:33:33.610Z,70.65
2018-11-13T11:34:33.588Z,70.86
2018-11-13T11:35:33.587Z,70.65
2018-11-13T11:36:33.605Z,70.55
2018-11-13T11:37:33.554Z,70.42
2018-11-13T11:38:33.604Z,70.96
2018-11-13T11:39:33.534Z,70.55
2018-11-13T11:40:33.528Z,70.55
2018-11-13T11:41:33.533Z,69.23
2018-11-13T11:42:33.548Z,70.55
2018-11-13T11:43:33.487Z,70.04
2018-11-13T11:44:33.584Z,71.36
2018-11-13T11:45:33.478Z,71.26
2018-11-13T11:46:33.488Z,70.79
2018-11-13T11:47:33.459Z,70.89
2018-11-13T11:48:33.473Z,70.68
2018-11-13T11:49:33.429Z,71.40
2018-11-13T11:50:33.423Z,70.79
2018-11-13T11:51:33.432Z,71.09
2018-11-13T11:52:33.404Z,70.82
2018-11-13T11:53:33.388Z,70.92
2018-11-13T11:54:33.370Z,70.82
2018-11-13T11:55:33.381Z,72.04
2018-11-13T11:56:33.350Z,71.84
2018-11-13T11:57:33.386Z,71.23
2018-11-13T11:58:33.342Z,71.73
2018-11-13T11:59:33.314Z,72.28
2018-11-13T12:00:33.329Z,72.38
2018-11-13T12:01:33.299Z,73.50
2018-11-13T12:02:33.295Z,73.71
2018-11-13T12:03:33.342Z,73.19
2018-11-13T12:04:33.258Z,74.96
2018-11-13T12:05:33.246Z,75.37
2018-11-13T12:06:33.234Z,76.73
2018-11-13T12:07:33.251Z,76.73
2018-11-13T12:08:33.219Z,78.46
2018-11-13T12:09:33.211Z,80.43
2018-11-13T12:10:33.194Z,81.29
2018-11-13T12:11:33.200Z,83.57
2018-11-13T12:12:33.191Z,84.69
2018-11-13T12:13:33.165Z,85.04
2018-11-13T12:14:33.144Z,85.65
2018-11-13T12:15:33.163Z,86.30
2018-11-13T12:16:33.129Z,87.02
2018-11-13T12:17:33.134Z,87.23
2018-11-13T12:18:33.108Z,86.82
2018-11-13T12:19:33.216Z,88.39
2018-11-13T12:20:33.085Z,89.17
2018-11-13T12:21:33.070Z,89.11
2018-11-13T12:22:33.093Z,89.82
2018-11-13T12:23:33.045Z,90.47
2018-11-13T12:24:33.027Z,90.58
2018-11-13T12:25:33.038Z,91.50
2018-11-13T12:26:33.036Z,92.83
2018-11-13T12:27:33.013Z,93.79
2018-11-13T12:28:33.013Z,93.48
2018-11-13T12:29:32.998Z,93.79
2018-11-13T12:30:32.966Z,93.48
2018-11-13T12:31:32.950Z,93.79
2018-11-13T12:32:32.942Z,94.51
2018-11-13T12:33:33.183Z,95.02
2018-11-13T12:34:33.002Z,94.20
2018-11-13T12:35:32.913Z,95.67
2018-11-13T12:36:32.893Z,96.39
2018-11-13T12:37:32.895Z,96.39
2018-11-13T12:38:32.898Z,96.70
2018-11-13T12:39:32.862Z,96.84
2018-11-13T12:40:32.866Z,97.15
2018-11-13T12:41:32.842Z,96.70
2018-11-13T12:42:32.845Z,97.11
2018-11-13T12:43:32.837Z,97.21
2018-11-13T12:44:33.028Z,97.21
2018-11-13T12:45:32.811Z,97.46
2018-11-13T12:46:32.839Z,97.56
2018-11-13T12:47:32.777Z,97.11
2018-11-13T12:48:32.806Z,97.21
2018-11-13T12:49:32.772Z,96.95
2018-11-13T12:50:32.756Z,96.49
2018-11-13T12:51:32.843Z,96.70
2018-11-13T12:52:32.780Z,96.80
2018-11-13T12:53:32.746Z,96.66
2018-11-13T12:54:33.031Z,96.75
2018-11-13T12:55:32.793Z,96.34
2018-11-13T12:56:32.677Z,95.79
2018-11-13T12:57:32.684Z,96.00
2018-11-13T12:58:32.672Z,95.38
2018-11-13T12:59:32.642Z,95.28
2018-11-13T13:00:32.630Z,95.48
2018-11-13T13:01:32.622Z,95.64
2018-11-13T13:02:32.622Z,96.05
2018-11-13T13:03:32.623Z,95.23
2018-11-13T13:04:32.591Z,94.73
2018-11-13T13:05:32.578Z,93.80
2018-11-13T13:06:32.563Z,93.96
2018-11-13T13:07:32.602Z,93.86
2018-11-13T13:08:32.683Z,92.84
2018-11-13T13:09:32.532Z,93.66
2018-11-13T13:10:32.644Z,93.55
2018-11-13T13:11:32.520Z,92.33
2018-11-13T13:12:32.509Z,91.92
2018-11-13T13:13:32.539Z,92.13
2018-11-13T13:14:32.494Z,91.41
2018-11-13T13:15:32.473Z,90.08
2018-11-13T13:16:32.483Z,90.66
2018-11-13T13:17:32.455Z,90.35
2018-11-13T13:18:32.464Z,90.45
2018-11-13T13:19:32.423Z,90.55
2018-11-13T13:20:32.425Z,89.53
2018-11-13T13:21:32.406Z,87.76
2018-11-13T13:22:32.402Z,87.96
2018-11-13T13:23:32.411Z,87.65
2018-11-13T13:24:32.376Z,87.04
2018-11-13T13:25:32.391Z,87.24
2018-11-13T13:26:32.353Z,87.35
2018-11-13T13:27:32.344Z,87.35
2018-11-13T13:28:32.351Z,85.98
2018-11-13T13:29:32.325Z,85.98
2018-11-13T13:30:32.305Z,85.88
2018-11-13T13:32:42.584Z,85.98
2018-11-13T13:33:43.597Z,85.37
2018-11-13T13:34:43.552Z,86.04
2018-11-13T13:35:43.538Z,85.47
2018-11-13T13:36:43.527Z,84.96
2018-11-13T13:37:43.524Z,84.55
2018-11-13T13:38:43.560Z,84.41
2018-11-13T13:39:43.519Z,84.51
2018-11-13T13:40:43.479Z,85.22
2018-11-13T13:41:43.481Z,84.31
2018-11-13T13:42:43.457Z,84.92
2018-11-13T13:43:43.464Z,84.82
2018-11-13T13:44:43.456Z,83.49
2018-11-13T13:45:43.439Z,84.72
2018-11-13T13:46:43.494Z,84.67
2018-11-13T13:47:43.402Z,84.20
2018-11-13T13:48:43.413Z,81.76
2018-11-13T13:49:43.394Z,82.78
2018-11-13T13:50:43.396Z,82.84
2018-11-13T13:51:43.387Z,82.74
2018-11-13T13:52:43.348Z,82.64
2018-11-13T13:53:43.428Z,81.93
2018-11-13T13:54:43.331Z,81.52
2018-11-13T13:55:43.321Z,81.21
2018-11-13T13:56:43.312Z,81.21
2018-11-13T13:57:43.305Z,81.82
2018-11-13T13:58:43.306Z,81.01
2018-11-13T13:59:43.363Z,81.82
2018-11-13T14:00:43.315Z,82.54
2018-11-13T14:01:43.262Z,81.21
2018-11-13T14:02:43.242Z,80.40
2018-11-13T14:03:43.247Z,80.80
2018-11-13T14:04:43.226Z,80.87
2018-11-13T14:05:43.208Z,80.66
2018-11-13T14:06:43.259Z,80.87
2018-11-13T14:07:43.204Z,81.11
2018-11-13T14:08:43.268Z,80.40
2018-11-13T14:09:43.168Z,79.68
2018-11-13T14:10:43.158Z,79.24
2018-11-13T14:11:43.145Z,78.77
2018-11-13T14:12:43.134Z,78.73
2018-11-13T14:13:43.141Z,79.17
2018-11-13T14:14:43.160Z,78.83
2018-11-13T14:15:43.096Z,77.51
2018-11-13T14:16:43.091Z,77.71
2018-11-13T14:17:43.086Z,78.77
2018-11-13T14:18:43.089Z,79.17
2018-11-13T14:19:43.050Z,79.58
2018-11-13T14:20:43.043Z,79.38
2018-11-13T14:21:43.034Z,78.05
2018-11-13T14:22:43.023Z,78.77
2018-11-13T14:23:43.007Z,79.27
2018-11-13T14:24:43.008Z,79.11
2018-11-13T14:25:42.997Z,79.58
2018-11-13T14:26:42.979Z,79.79
2018-11-13T14:27:42.989Z,79.62
2018-11-13T14:28:42.948Z,79.41
2018-11-13T14:29:42.973Z,79.52
2018-11-13T14:30:42.943Z,79.72
2018-11-13T14:31:42.923Z,79.82
2018-11-13T14:32:42.902Z,80.13
2018-11-13T14:33:42.884Z,79.72
2018-11-13T14:34:42.898Z,79.41
2018-11-13T14:35:43.065Z,79.82
2018-11-13T14:36:42.865Z,79.82
2018-11-13T14:37:42.842Z,80.13
2018-11-13T14:38:42.842Z,79.82
2018-11-13T14:39:42.844Z,79.82
2018-11-13T14:40:42.809Z,80.13
2018-11-13T14:41:42.795Z,79.21
2018-11-13T14:42:42.804Z,80.13
2018-11-13T14:43:42.784Z,79.21
2018-11-13T14:44:42.800Z,79.62
2018-11-13T14:45:42.768Z,79.27
2018-11-13T14:46:42.864Z,79.89
2018-11-13T14:47:42.749Z,79.79
2018-11-13T14:48:42.728Z,79.17
2018-11-13T14:49:42.739Z,79.11
2018-11-13T14:50:42.714Z,79.72
2018-11-13T14:51:42.707Z,79.21
2018-11-13T14:52:42.677Z,79.11
2018-11-13T14:53:42.674Z,78.91
2018-11-13T14:54:42.680Z,80.13
2018-11-13T14:55:42.655Z,79.32
2018-11-13T14:56:42.642Z,79.11
2018-11-13T14:57:42.650Z,78.60
2018-11-13T14:58:42.620Z,78.50
2018-11-13T14:59:42.623Z,77.58
2018-11-13T15:00:42.601Z,78.91
2018-11-13T15:01:42.730Z,77.98
2018-11-13T15:02:42.576Z,78.19
2018-11-13T15:03:42.560Z,78.09
2018-11-13T15:04:42.566Z,78.80
2018-11-13T15:05:42.537Z,77.17
2018-11-13T15:06:42.532Z,77.68
2018-11-13T15:07:42.538Z,77.48
2018-11-13T15:08:42.520Z,78.02
2018-11-13T15:09:42.516Z,78.91
2018-11-13T15:10:42.487Z,78.60
2018-11-13T15:11:42.471Z,78.84
2018-11-13T15:12:42.462Z,78.43
2018-11-13T15:13:42.445Z,78.94
2018-11-13T15:14:42.456Z,77.31
2018-11-13T15:15:42.430Z,77.72
2018-11-13T15:16:42.419Z,77.31
2018-11-13T15:17:42.403Z,79.04
2018-11-13T15:18:42.401Z,77.72
2018-11-13T15:19:42.411Z,77.37
2018-11-13T15:20:42.378Z,77.92
2018-11-13T15:21:42.525Z,77.48
2018-11-13T15:22:42.351Z,77.48
2018-11-13T15:23:42.336Z,77.51
2018-11-13T15:24:42.352Z,76.15
2018-11-13T15:25:42.324Z,77.27
2018-11-13T15:26:42.305Z,77.62
2018-11-13T15:27:42.298Z,77.78
2018-11-13T15:28:42.292Z,77.82
2018-11-13T15:29:42.291Z,77.62
2018-11-13T15:30:42.298Z,77.51
2018-11-13T15:31:42.257Z,77.31
2018-11-13T15:33:51.457Z,77.31
2018-11-13T15:34:52.455Z,77.96
2018-11-13T15:35:52.404Z,77.86
2018-11-13T15:36:52.559Z,77.86
2018-11-13T15:37:52.380Z,77.00
2018-11-13T15:38:52.368Z,77.31
2018-11-13T15:39:52.434Z,77.11
2018-11-13T15:40:52.364Z,76.19
2018-11-13T15:41:52.344Z,76.09
2018-11-13T15:42:52.326Z,77.25
2018-11-13T15:43:52.334Z,77.65
2018-11-13T15:44:52.529Z,77.65
2018-11-13T15:45:52.292Z,77.75
2018-11-13T15:46:52.283Z,77.65
2018-11-13T15:47:52.270Z,76.84
2018-11-13T15:48:52.259Z,77.55
2018-11-13T15:49:52.280Z,77.65
2018-11-13T15:50:52.260Z,77.34
2018-11-13T15:51:52.279Z,77.25
2018-11-13T15:52:52.225Z,77.14
2018-11-13T15:53:52.206Z,77.14
2018-11-13T15:54:52.464Z,77.25
2018-11-13T15:55:52.191Z,77.25
2018-11-13T15:56:52.169Z,77.34
2018-11-13T15:57:52.169Z,76.73
2018-11-13T15:58:52.162Z,76.93
2018-11-13T15:59:52.177Z,75.92
2018-11-13T16:00:52.201Z,76.32
2018-11-13T16:01:52.113Z,76.22
2018-11-13T16:02:52.130Z,77.04
2018-11-13T16:03:52.101Z,77.28
2018-11-13T16:04:52.124Z,76.77
2018-11-13T16:05:52.075Z,77.89
2018-11-13T16:06:52.073Z,77.18
2018-11-13T16:07:52.058Z,77.69
2018-11-13T16:08:52.040Z,77.38
2018-11-13T16:09:52.050Z,77.28
2018-11-13T16:10:52.027Z,77.59
2018-11-13T16:11:52.012Z,77.59
2018-11-13T16:12:52.008Z,77.59
2018-11-13T16:13:51.990Z,77.28
2018-11-13T16:14:51.985Z,77.22
2018-11-13T16:15:51.996Z,77.69
2018-11-13T16:16:51.957Z,77.62
2018-11-13T16:17:51.950Z,77.62
2018-11-13T16:18:51.927Z,77.83
2018-11-13T16:19:51.930Z,77.62
2018-11-13T16:20:52.000Z,77.83
2018-11-13T16:21:51.952Z,77.42
2018-11-13T16:22:51.891Z,77.42
2018-11-13T16:23:51.900Z,77.93
2018-11-13T16:24:51.873Z,76.77
2018-11-13T16:25:51.852Z,77.42
2018-11-13T16:26:51.884Z,77.52
2018-11-13T16:27:51.842Z,77.42
2018-11-13T16:28:51.832Z,77.62
2018-11-13T16:29:51.908Z,77.62
2018-11-13T16:30:52.009Z,77.72
2018-11-13T16:31:51.818Z,78.03
2018-11-13T16:32:51.798Z,77.56
2018-11-13T16:33:51.778Z,77.97
2018-11-13T16:34:51.758Z,77.72
2018-11-13T16:35:51.738Z,77.93
2018-11-13T16:36:51.776Z,78.54
2018-11-13T16:37:51.849Z,78.48
2018-11-13T16:38:51.711Z,78.48
2018-11-13T16:39:51.722Z,78.99
2018-11-13T16:40:51.690Z,78.58
2018-11-13T16:41:52.748Z,79.43
2018-11-13T16:42:51.672Z,78.68
2018-11-13T16:43:51.654Z,77.93
2018-11-13T16:44:52.182Z,77.52
2018-11-13T16:45:51.641Z,77.52
2018-11-13T16:46:51.625Z,76.81
2018-11-13T16:47:51.640Z,77.72
2018-11-13T16:48:51.611Z,78.03
2018-11-13T16:49:51.585Z,77.76
2018-11-13T16:50:51.575Z,77.72
2018-11-13T16:51:51.564Z,77.66
2018-11-13T16:52:51.583Z,78.27
2018-11-13T16:53:51.613Z,77.97
2018-11-13T16:54:51.528Z,77.76
2018-11-13T16:55:51.525Z,78.17
2018-11-13T16:56:51.527Z,77.86
2018-11-13T16:57:51.521Z,79.23
2018-11-13T16:58:51.490Z,79.39
2018-11-13T16:59:51.484Z,79.43
2018-11-13T17:00:51.522Z,79.09
2018-11-13T17:01:51.459Z,79.23
2018-11-13T17:02:51.478Z,79.13
2018-11-13T17:03:51.559Z,79.13
2018-11-13T17:04:51.471Z,79.13
2018-11-13T17:05:51.527Z,79.33
2018-11-13T17:06:51.515Z,79.23
2018-11-13T17:07:51.424Z,78.82
2018-11-13T17:08:51.410Z,79.33
2018-11-13T17:09:51.374Z,79.13
2018-11-13T17:10:51.365Z,79.13
2018-11-13T17:11:51.398Z,79.47
2018-11-13T17:12:51.364Z,79.27
2018-11-13T17:13:51.361Z,79.74
2018-11-13T17:14:51.321Z,79.47
2018-11-13T17:15:51.301Z,79.37
2018-11-13T17:16:51.288Z,80.19
2018-11-13T17:17:51.295Z,79.78
2018-11-13T17:18:51.276Z,79.27
2018-11-13T17:19:51.263Z,79.43
2018-11-13T17:20:51.252Z,79.13
2018-11-13T17:21:51.242Z,79.43
2018-11-13T17:22:51.257Z,78.86
2018-11-13T17:23:51.220Z,80.19
2018-11-13T17:24:51.206Z,80.39
2018-11-13T17:25:51.229Z,79.88
2018-11-13T17:26:51.186Z,79.84
2018-11-13T17:27:51.196Z,79.53
2018-11-13T17:28:51.174Z,79.13
2018-11-13T17:29:51.160Z,80.08
2018-11-13T17:30:51.138Z,80.08
2018-11-13T17:31:51.351Z,79.78
2018-11-13T17:32:51.136Z,80.22
2018-11-13T17:35:00.298Z,81.15
2018-11-13T17:36:01.294Z,81.04
2018-11-13T17:37:01.283Z,80.69
2018-11-13T17:38:01.485Z,79.88
2018-11-13T17:39:01.253Z,79.88
2018-11-13T17:40:01.252Z,79.98
2018-11-13T17:41:01.232Z,81.45
2018-11-13T17:42:01.231Z,81.04
2018-11-13T17:43:01.249Z,81.15
2018-11-13T17:44:01.278Z,81.35
2018-11-13T17:45:01.184Z,81.15
2018-11-13T17:46:01.189Z,81.24
2018-11-13T17:47:01.174Z,80.90
2018-11-13T17:48:01.189Z,81.04
2018-11-13T17:49:01.157Z,81.15
2018-11-13T17:50:01.154Z,81.24
2018-11-13T17:51:01.126Z,81.15
2018-11-13T17:52:01.123Z,80.94
2018-11-13T17:53:01.137Z,81.96
2018-11-13T17:54:01.109Z,81.24
2018-11-13T17:55:01.090Z,81.04
2018-11-13T17:56:01.063Z,81.15
2018-11-13T17:57:01.064Z,80.94
2018-11-13T17:58:01.061Z,81.15
2018-11-13T17:59:01.044Z,81.96
2018-11-13T18:00:01.041Z,81.59
2018-11-13T18:01:01.013Z,81.96
2018-11-13T18:02:00.998Z,81.96
2018-11-13T18:03:01.008Z,81.86
2018-11-13T18:04:00.987Z,81.56
2018-11-13T18:05:00.976Z,81.76
2018-11-13T18:06:00.957Z,81.38
2018-11-13T18:07:00.950Z,82.31
2018-11-13T18:08:00.943Z,82.10
2018-11-13T18:09:01.084Z,82.21
2018-11-13T18:10:01.549Z,82.10
2018-11-13T18:11:00.920Z,82.41
2018-11-13T18:12:01.540Z,82.82
2018-11-13T18:13:00.943Z,82.10
2018-11-13T18:14:01.605Z,82.41
2018-11-13T18:15:01.085Z,82.31
2018-11-13T18:16:01.596Z,82.10
2018-11-13T18:17:01.546Z,82.31
2018-11-13T18:18:00.903Z,82.48
2018-11-13T18:19:00.924Z,82.10
2018-11-13T18:20:00.907Z,82.21
2018-11-13T18:21:00.795Z,81.86
2018-11-13T18:22:01.061Z,82.37
2018-11-13T18:23:00.775Z,82.78
2018-11-13T18:24:00.766Z,81.70
2018-11-13T18:25:00.776Z,82.10
2018-11-13T18:26:00.751Z,83.13
2018-11-13T18:27:00.735Z,83.03
2018-11-13T18:28:00.789Z,81.86
2018-11-13T18:29:00.707Z,82.89
2018-11-13T18:30:00.715Z,82.07
2018-11-13T18:31:00.686Z,81.96
2018-11-13T18:32:00.676Z,82.37
2018-11-13T18:33:00.663Z,82.41
2018-11-13T18:34:00.665Z,83.29
2018-11-13T18:35:00.671Z,83.03
2018-11-13T18:36:00.630Z,83.44
2018-11-13T18:37:00.627Z,83.09
2018-11-13T18:38:00.803Z,83.19
2018-11-13T18:39:00.840Z,83.09
2018-11-13T18:40:00.601Z,83.03
2018-11-13T18:41:00.577Z,83.74
2018-11-13T18:42:00.591Z,83.54
2018-11-13T18:43:00.551Z,83.13
2018-11-13T18:44:00.534Z,83.95
2018-11-13T18:45:00.580Z,84.09
2018-11-13T18:46:00.539Z,84.05
2018-11-13T18:47:00.502Z,83.13
2018-11-13T18:48:00.504Z,83.84
2018-11-13T18:49:00.482Z,83.95
2018-11-13T18:50:00.568Z,84.19
2018-11-13T18:51:00.460Z,84.19
2018-11-13T18:52:00.451Z,85.17
2018-11-13T18:53:00.438Z,83.84
2018-11-13T18:54:00.427Z,84.09
2018-11-13T18:55:00.442Z,84.39
2018-11-13T18:56:00.414Z,84.05
2018-11-13T18:57:00.396Z,83.98
2018-11-13T18:58:00.383Z,85.22
2018-11-13T18:59:00.433Z,83.64
2018-11-13T19:00:00.391Z,83.84
2018-11-13T19:01:00.359Z,83.95
2018-11-13T19:02:00.348Z,83.98
2018-11-13T19:03:00.338Z,84.25
2018-11-13T19:04:00.320Z,84.56
2018-11-13T19:05:00.329Z,84.60
2018-11-13T19:06:00.309Z,85.11
2018-11-13T19:07:00.305Z,85.83
2018-11-13T19:08:00.595Z,85.17
2018-11-13T19:09:00.260Z,85.22
2018-11-13T19:10:00.284Z,85.11
2018-11-13T19:11:00.328Z,85.01
2018-11-13T19:12:00.337Z,84.70
2018-11-13T19:13:00.240Z,84.80
2018-11-13T19:14:00.218Z,85.31
2018-11-13T19:15:00.285Z,85.01
2018-11-13T19:16:00.203Z,86.04
2018-11-13T19:17:00.285Z,85.93
2018-11-13T19:18:00.305Z,85.83
2018-11-13T19:19:01.024Z,85.83
2018-11-13T19:20:00.302Z,85.22
2018-11-13T19:21:00.133Z,84.91
2018-11-13T19:22:00.120Z,85.22
2018-11-13T19:23:00.117Z,85.31
2018-11-13T19:24:00.231Z,85.63
2018-11-13T19:25:00.123Z,85.46
2018-11-13T19:26:00.089Z,86.07
2018-11-13T19:27:00.081Z,85.97
2018-11-13T19:28:00.070Z,85.56
2018-11-13T19:29:00.056Z,85.56
2018-11-13T19:30:00.104Z,85.97
2018-11-13T19:31:00.056Z,85.77
2018-11-13T19:32:00.023Z,85.87
2018-11-13T19:33:00.013Z,86.38
2018-11-13T19:34:00.008Z,86.28
2018-11-13T19:36:09.562Z,86.28
2018-11-13T19:37:10.242Z,86.58
2018-11-13T19:38:10.154Z,85.56
2018-11-13T19:39:10.137Z,85.56
2018-11-13T19:40:10.119Z,85.93
2018-11-13T19:41:10.149Z,85.11
2018-11-13T19:42:10.103Z,85.72
2018-11-13T19:43:10.171Z,85.52
2018-11-13T19:44:10.087Z,85.83
2018-11-13T19:45:10.149Z,85.31
2018-11-13T19:46:10.085Z,85.42
2018-11-13T19:47:10.051Z,85.93
2018-11-13T19:48:10.041Z,85.46
2018-11-13T19:49:10.046Z,85.77
2018-11-13T19:50:10.013Z,86.90
2018-11-13T19:51:10.005Z,86.28
2018-11-13T19:52:10.000Z,86.38
2018-11-13T19:53:09.982Z,86.28
2018-11-13T19:54:09.973Z,85.11
2018-11-13T19:55:09.964Z,85.42
2018-11-13T19:56:09.951Z,85.38
2018-11-13T19:57:09.971Z,84.80
2018-11-13T19:58:10.919Z,85.01
2018-11-13T19:59:09.929Z,85.83
2018-11-13T20:00:09.904Z,85.72
2018-11-13T20:01:10.024Z,85.63
2018-11-13T20:02:09.900Z,85.31
2018-11-13T20:03:09.873Z,85.63
2018-11-13T20:04:09.924Z,85.63
2018-11-13T20:05:09.854Z,85.72
2018-11-13T20:06:09.846Z,85.31
2018-11-13T20:07:09.854Z,85.11
2018-11-13T20:08:09.818Z,85.58
2018-11-13T20:09:09.803Z,85.31
2018-11-13T20:10:09.814Z,86.24
2018-11-13T20:11:09.787Z,86.34
2018-11-13T20:12:09.787Z,85.52
2018-11-13T20:13:09.770Z,86.14
2018-11-13T20:14:09.760Z,85.52
2018-11-13T20:15:09.738Z,86.34
2018-11-13T20:16:09.837Z,86.34
2018-11-13T20:17:09.747Z,86.34
2018-11-13T20:18:09.715Z,86.65
2018-11-13T20:19:09.700Z,86.34
2018-11-13T20:20:09.691Z,86.34
2018-11-13T20:21:09.667Z,86.48
2018-11-13T20:22:09.767Z,86.28
2018-11-13T20:23:09.699Z,86.44
2018-11-13T20:24:09.648Z,86.04
2018-11-13T20:25:09.639Z,86.04
2018-11-13T20:26:09.614Z,87.10
2018-11-13T20:27:09.634Z,86.04
2018-11-13T20:28:09.606Z,86.18
2018-11-13T20:29:09.579Z,87.20
2018-11-13T20:30:09.580Z,86.38
2018-11-13T20:31:09.564Z,86.44
2018-11-13T20:32:09.571Z,85.42
2018-11-13T20:33:09.550Z,86.14
2018-11-13T20:34:09.528Z,86.38
2018-11-13T20:35:09.515Z,86.48
2018-11-13T20:36:09.508Z,86.38
2018-11-13T20:37:09.521Z,87.30
2018-11-13T20:38:09.494Z,86.69
2018-11-13T20:39:09.486Z,86.48
2018-11-13T20:40:09.468Z,86.69
2018-11-13T20:41:09.461Z,87.41
2018-11-13T20:42:09.458Z,86.90
2018-11-13T20:43:09.436Z,87.20
2018-11-13T20:44:09.424Z,86.90
2018-11-13T20:45:09.412Z,86.90
2018-11-13T20:46:09.413Z,87.51
2018-11-13T20:47:09.404Z,88.12
2018-11-13T20:48:09.374Z,87.10
2018-11-13T20:49:09.373Z,87.76
2018-11-13T20:50:09.349Z,87.65
2018-11-13T20:51:09.347Z,87.55
2018-11-13T20:52:09.359Z,87.55
2018-11-13T20:53:09.328Z,87.65
2018-11-13T20:54:09.314Z,87.85
2018-11-13T20:55:09.309Z,87.20
2018-11-13T20:56:09.300Z,87.65
2018-11-13T20:57:09.313Z,87.76
2018-11-13T20:58:09.274Z,87.61
2018-11-13T20:59:09.265Z,87.82
2018-11-13T21:00:09.253Z,87.06
2018-11-13T21:01:09.260Z,87.30
2018-11-13T21:02:09.290Z,87.10
2018-11-13T21:03:09.226Z,87.76
2018-11-13T21:04:09.215Z,87.71
2018-11-13T21:05:09.185Z,87.30
2018-11-13T21:06:09.178Z,87.51
2018-11-13T21:07:09.213Z,87.76
2018-11-13T21:08:09.169Z,87.76
2018-11-13T21:09:09.154Z,88.88
2018-11-13T21:10:09.143Z,88.57
2018-11-13T21:11:09.168Z,89.19
2018-11-13T21:12:09.135Z,88.27
2018-11-13T21:13:09.106Z,88.57
2018-11-13T21:14:09.094Z,88.47
2018-11-13T21:15:09.082Z,88.98
2018-11-13T21:16:09.129Z,88.98
2018-11-13T21:17:09.250Z,88.06
2018-11-13T21:18:09.056Z,88.47
2018-11-13T21:19:09.038Z,88.78
2018-11-13T21:20:09.034Z,88.88
2018-11-13T21:21:09.026Z,89.03
2018-11-13T21:22:09.023Z,88.88
2018-11-13T21:23:09.003Z,88.98
2018-11-13T21:24:09.411Z,88.06
2018-11-13T21:25:09.197Z,88.57
2018-11-13T21:26:08.965Z,88.68
2018-11-13T21:27:08.971Z,88.68
2018-11-13T21:28:08.976Z,88.98
2018-11-13T21:29:09.932Z,89.29
2018-11-13T21:30:09.063Z,89.09
2018-11-13T21:31:08.916Z,89.09
2018-11-13T21:32:08.897Z,88.43
2018-11-13T21:33:08.929Z,88.57
2018-11-13T21:34:08.874Z,88.43
2018-11-13T21:35:08.871Z,88.47
2018-11-13T21:37:18.072Z,88.47
2018-11-13T21:38:19.083Z,88.88
2018-11-13T21:39:19.053Z,88.78
2018-11-13T21:40:19.038Z,88.94
2018-11-13T21:41:19.026Z,88.47
2018-11-13T21:42:19.022Z,89.09
2018-11-13T21:43:19.022Z,88.88
2018-11-13T21:44:19.169Z,88.98
2018-11-13T21:45:18.975Z,88.37
2018-11-13T21:46:18.964Z,88.47
2018-11-13T21:47:18.980Z,88.88
2018-11-13T21:48:18.942Z,89.81
2018-11-13T21:49:18.967Z,89.54
2018-11-13T21:50:18.933Z,89.23
2018-11-13T21:51:18.917Z,89.29
2018-11-13T21:52:18.913Z,90.01
2018-11-13T21:53:18.897Z,88.98
2018-11-13T21:54:18.914Z,88.82
2018-11-13T21:55:18.986Z,89.70
2018-11-13T21:56:18.859Z,89.50
2018-11-13T21:57:18.859Z,88.68
2018-11-13T21:58:18.845Z,88.78
2018-11-13T21:59:18.861Z,89.43
2018-11-13T22:00:18.818Z,89.54
2018-11-13T22:01:18.867Z,89.54
2018-11-13T22:02:18.803Z,89.70
2018-11-13T22:03:18.792Z,89.60
2018-11-13T22:04:18.869Z,89.70
2018-11-13T22:05:18.766Z,88.98
2018-11-13T22:06:18.748Z,89.39
2018-11-13T22:07:18.733Z,89.81
2018-11-13T22:08:18.738Z,89.50
2018-11-13T22:09:18.736Z,89.70
2018-11-13T22:10:18.704Z,89.95
2018-11-13T22:11:18.693Z,89.60
2018-11-13T22:12:18.705Z,89.81
2018-11-13T22:13:18.681Z,89.60
2018-11-13T22:14:18.675Z,89.60
2018-11-13T22:15:18.648Z,89.19
2018-11-13T22:16:18.642Z,89.81
2018-11-13T22:17:18.635Z,89.60
2018-11-13T22:18:18.618Z,89.90
2018-11-13T22:19:18.631Z,89.50
2018-11-13T22:20:18.594Z,89.76
2018-11-13T22:21:18.608Z,89.81
2018-11-13T22:22:18.617Z,89.39
2018-11-13T22:23:18.630Z,90.01
2018-11-13T22:24:18.583Z,89.70
2018-11-13T22:25:18.610Z,89.70
2018-11-13T22:26:18.527Z,88.88
2018-11-13T22:27:18.520Z,89.60
2018-11-13T22:28:18.553Z,89.50
2018-11-13T22:29:18.738Z,88.94
2018-11-13T22:30:18.513Z,88.53
2018-11-13T22:31:18.475Z,89.09
2018-11-13T22:32:18.463Z,89.81
2018-11-13T22:33:18.461Z,89.60
2018-11-13T22:34:18.470Z,88.64
2018-11-13T22:35:18.435Z,88.74
2018-11-13T22:36:18.494Z,89.04
2018-11-13T22:37:18.417Z,88.94
2018-11-13T22:38:18.397Z,88.84
2018-11-13T22:39:18.402Z,89.09
2018-11-13T22:40:18.387Z,89.60
2018-11-13T22:41:18.471Z,89.04
2018-11-13T22:42:18.364Z,88.53
2018-11-13T22:43:18.345Z,88.78
2018-11-13T22:44:18.420Z,89.19
2018-11-13T22:45:18.326Z,89.39
2018-11-13T22:46:18.313Z,88.68
2018-11-13T22:47:18.321Z,89.70
2018-11-13T22:48:18.299Z,89.39
2018-11-13T22:49:18.318Z,89.90
2018-11-13T22:50:18.274Z,90.01
2018-11-13T22:51:18.264Z,89.60
2018-11-13T22:52:18.241Z,89.81
2018-11-13T22:53:18.241Z,88.57
2018-11-13T22:54:18.250Z,88.98
2018-11-13T22:55:18.236Z,89.39
2018-11-13T22:56:18.194Z,89.39
2018-11-13T22:57:18.183Z,89.39
2018-11-13T22:58:18.180Z,89.60
2018-11-13T22:59:18.204Z,90.11
2018-11-13T23:00:18.551Z,89.39
2018-11-13T23:01:18.258Z,89.60
2018-11-13T23:02:18.258Z,89.81
2018-11-13T23:03:18.129Z,89.09
2018-11-13T23:04:24.864Z,89.19
2018-11-13T23:05:18.110Z,90.01
2018-11-13T23:06:18.090Z,89.29
2018-11-13T23:07:18.077Z,90.11
2018-11-13T23:08:18.071Z,89.70
2018-11-13T23:09:18.052Z,89.90
2018-11-13T23:10:18.088Z,89.29
2018-11-13T23:11:18.051Z,89.54
2018-11-13T23:12:18.035Z,90.01
2018-11-13T23:13:18.019Z,89.50
2018-11-13T23:14:18.011Z,88.78
2018-11-13T23:15:18.074Z,89.60
2018-11-13T23:16:18.826Z,89.60
2018-11-13T23:17:17.984Z,88.37
2018-11-13T23:18:17.967Z,89.39
2018-11-13T23:19:17.953Z,88.88
2018-11-13T23:20:17.946Z,89.60
2018-11-13T23:21:17.963Z,89.90
2018-11-13T23:22:17.921Z,90.11
2018-11-13T23:23:17.908Z,89.60
2018-11-13T23:24:17.891Z,89.70
2018-11-13T23:25:17.882Z,90.01
2018-11-13T23:26:17.886Z,89.13
2018-11-13T23:27:17.855Z,90.05
2018-11-13T23:28:17.855Z,90.77
2018-11-13T23:29:17.837Z,90.91
2018-11-13T23:30:17.901Z,91.08
2018-11-13T23:31:17.850Z,90.05
2018-11-13T23:32:17.801Z,89.75
2018-11-13T23:33:17.803Z,89.95
2018-11-13T23:34:17.783Z,90.26
2018-11-13T23:35:17.779Z,91.08
2018-11-13T23:36:17.849Z,90.71
2018-11-13T23:38:26.945Z,90.77
2018-11-13T23:39:27.943Z,90.87
2018-11-13T23:40:27.920Z,90.56
2018-11-13T23:41:27.944Z,89.90
2018-11-13T23:42:27.893Z,90.05
2018-11-13T23:43:27.886Z,90.05
2018-11-13T23:44:27.947Z,89.84
2018-11-13T23:45:27.884Z,90.56
2018-11-13T23:46:27.893Z,90.36
2018-11-13T23:47:27.847Z,90.36
2018-11-13T23:48:27.832Z,90.46
2018-11-13T23:49:27.883Z,90.56
2018-11-13T23:50:27.816Z,90.77
2018-11-13T23:51:27.838Z,89.95
2018-11-13T23:52:27.796Z,89.95
2018-11-13T23:53:27.847Z,90.05
2018-11-13T23:54:27.787Z,89.95
2018-11-13T23:55:27.783Z,90.16
2018-11-13T23:56:27.825Z,90.87
2018-11-13T23:57:27.752Z,91.18
2018-11-13T23:58:27.734Z,90.67
2018-11-13T23:59:27.723Z,91.18
